createdAt,value
2018-05-01T00:01:11.966Z,1.23
2018-05-01T00:03:45.831Z,1.10
2018-05-01T00:06:21.329Z,0.70
2018-05-01T00:08:54.519Z,0.90
2018-05-01T00:11:27.551Z,0.90
2018-05-01T00:14:00.724Z,0.87
2018-05-01T00:16:33.891Z,0.73
2018-05-01T00:19:07.786Z,0.70
2018-05-01T00:21:41.259Z,0.87
2018-05-01T00:24:14.235Z,0.63
2018-05-01T00:26:47.598Z,0.80
2018-05-01T00:29:21.921Z,0.80
2018-05-01T00:31:55.066Z,0.77
2018-05-01T00:34:28.250Z,1.10
2018-05-01T00:37:01.587Z,0.80
2018-05-01T00:39:36.261Z,1.30
2018-05-01T00:42:11.354Z,0.80
2018-05-01T00:44:44.770Z,1.20
2018-05-01T00:47:18.540Z,0.53
2018-05-01T00:49:51.582Z,0.80
2018-05-01T00:52:33.364Z,0.70
2018-05-01T00:55:06.652Z,0.70
2018-05-01T00:57:39.657Z,0.80
2018-05-01T01:00:12.800Z,0.70
2018-05-01T01:02:46.131Z,0.40
2018-05-01T01:05:19.231Z,0.90
2018-05-01T01:07:52.376Z,0.70
2018-05-01T01:10:26.612Z,0.80
2018-05-01T01:13:00.115Z,0.70
2018-05-01T01:15:34.378Z,0.70
2018-05-01T01:18:09.467Z,0.87
2018-05-01T01:20:45.956Z,0.70
2018-05-01T01:23:19.015Z,0.60
2018-05-01T01:25:52.106Z,1.00
2018-05-01T01:28:25.766Z,0.80
2018-05-01T01:30:59.751Z,0.70
2018-05-01T01:33:33.194Z,0.77
2018-05-01T01:36:04.895Z,0.90
2018-05-01T01:38:37.060Z,0.80
2018-05-01T01:41:08.928Z,0.70
2018-05-01T01:43:40.619Z,0.70
2018-05-01T01:46:14.300Z,0.80
2018-05-01T01:48:47.974Z,0.83
2018-05-01T01:51:19.895Z,0.80
2018-05-01T01:53:51.805Z,0.90
2018-05-01T01:56:23.474Z,0.60
2018-05-01T01:58:55.502Z,0.60
2018-05-01T02:01:27.118Z,0.70
2018-05-01T02:03:59.239Z,1.00
2018-05-01T02:06:31.151Z,0.90
2018-05-01T02:09:03.497Z,1.10
2018-05-01T02:11:35.159Z,0.70
2018-05-01T02:14:06.779Z,0.97
2018-05-01T02:16:38.453Z,0.73
2018-05-01T02:19:10.119Z,0.70
2018-05-01T02:21:41.778Z,0.80
2018-05-01T02:24:13.724Z,0.80
2018-05-01T02:26:46.410Z,0.90
2018-05-01T02:29:19.098Z,0.87
2018-05-01T02:31:51.565Z,0.57
2018-05-01T02:34:24.924Z,0.53
2018-05-01T02:36:59.364Z,0.50
2018-05-01T02:39:35.360Z,0.70
2018-05-01T02:42:08.644Z,0.87
2018-05-01T02:44:42.247Z,0.43
2018-05-01T02:47:15.197Z,1.10
2018-05-01T02:49:47.981Z,0.60
2018-05-01T02:52:20.567Z,0.60
2018-05-01T02:54:53.149Z,0.50
2018-05-01T02:57:28.744Z,0.43
2018-05-01T03:00:01.032Z,0.50
2018-05-01T03:02:33.048Z,0.40
2018-05-01T03:05:05.165Z,0.30
2018-05-01T03:07:37.949Z,0.37
2018-05-01T03:10:10.339Z,0.47
2018-05-01T03:12:44.231Z,0.40
2018-05-01T03:15:16.036Z,0.60
2018-05-01T03:17:48.015Z,0.67
2018-05-01T03:20:21.383Z,0.40
2018-05-01T03:22:53.630Z,0.57
2018-05-01T03:25:28.118Z,0.60
2018-05-01T03:28:02.195Z,0.40
2018-05-01T03:30:34.836Z,0.50
2018-05-01T03:33:08.143Z,0.50
2018-05-01T03:35:45.169Z,0.50
2018-05-01T03:38:18.153Z,0.60
2018-05-01T03:40:54.061Z,0.50
2018-05-01T03:43:27.999Z,0.47
2018-05-01T03:46:02.137Z,0.50
2018-05-01T03:48:36.994Z,0.70
2018-05-01T03:51:10.698Z,0.70
2018-05-01T03:53:46.923Z,0.57
2018-05-01T03:56:19.090Z,0.50
2018-05-01T03:58:51.388Z,0.40
2018-05-01T04:01:27.516Z,0.50
2018-05-01T04:04:00.700Z,0.43
2018-05-01T04:06:34.911Z,0.60
2018-05-01T04:09:08.926Z,0.60
2018-05-01T04:11:41.500Z,0.50
2018-05-01T04:14:14.512Z,0.40
2018-05-01T04:16:50.262Z,0.43
2018-05-01T04:19:22.806Z,0.50
2018-05-01T04:21:56.673Z,0.43
2018-05-01T04:24:31.980Z,0.40
2018-05-01T04:27:04.660Z,0.40
2018-05-01T04:29:39.104Z,0.40
2018-05-01T04:32:12.606Z,0.40
2018-05-01T04:34:46.406Z,0.50
2018-05-01T04:37:20.961Z,0.77
2018-05-01T04:39:54.229Z,0.70
2018-05-01T04:42:27.381Z,0.90
2018-05-01T04:45:02.103Z,0.60
2018-05-01T04:47:33.783Z,0.63
2018-05-01T04:50:07.289Z,0.40
2018-05-01T04:52:41.125Z,0.40
2018-05-01T04:55:14.709Z,0.43
2018-05-01T04:57:48.359Z,0.60
2018-05-01T05:00:23.072Z,0.40
2018-05-01T05:02:55.049Z,0.43
2018-05-01T05:05:26.818Z,0.60
2018-05-01T05:07:58.862Z,0.60
2018-05-01T05:10:30.718Z,0.60
2018-05-01T05:13:02.511Z,0.57
2018-05-01T05:15:38.385Z,0.70
2018-05-01T05:18:10.613Z,0.60
2018-05-01T05:20:42.448Z,0.53
2018-05-01T05:23:14.352Z,0.43
2018-05-01T05:25:46.680Z,0.40
2018-05-01T05:28:18.434Z,0.63
2018-05-01T05:30:50.188Z,0.50
2018-05-01T05:33:21.961Z,0.60
2018-05-01T05:35:53.908Z,0.50
2018-05-01T05:38:26.741Z,0.60
2018-05-01T05:40:58.663Z,0.50
2018-05-01T05:43:30.591Z,0.50
2018-05-01T05:46:02.706Z,0.60
2018-05-01T05:48:34.401Z,0.57
2018-05-01T05:51:06.241Z,0.40
2018-05-01T05:53:38.510Z,0.57
2018-05-01T05:56:10.550Z,0.80
2018-05-01T05:58:42.253Z,0.50
2018-05-01T06:01:15.323Z,0.50
2018-05-01T06:03:48.712Z,0.63
2018-05-01T06:06:20.601Z,0.77
2018-05-01T06:08:52.479Z,0.53
2018-05-01T06:11:24.266Z,0.70
2018-05-01T06:13:56.072Z,0.50
2018-05-01T06:16:27.948Z,0.60
2018-05-01T06:18:59.969Z,0.70
2018-05-01T06:21:32.177Z,0.57
2018-05-01T06:24:13.828Z,0.53
2018-05-01T06:26:55.938Z,0.70
2018-05-01T06:29:32.620Z,0.60
2018-05-01T06:32:06.757Z,0.60
2018-05-01T06:34:38.635Z,0.60
2018-05-01T06:37:11.910Z,0.60
2018-05-01T06:39:45.068Z,0.50
2018-05-01T06:42:17.090Z,0.60
2018-05-01T06:44:49.261Z,0.47
2018-05-01T06:47:21.079Z,0.60
2018-05-01T06:49:52.925Z,0.57
2018-05-01T06:52:27.113Z,1.00
2018-05-01T06:54:59.574Z,1.10
2018-05-01T06:57:31.798Z,0.70
2018-05-01T07:00:03.494Z,0.63
2018-05-01T07:02:38.761Z,0.70
2018-05-01T07:05:10.740Z,1.00
2018-05-01T07:07:42.431Z,0.60
2018-05-01T07:10:21.643Z,0.80
2018-05-01T07:13:04.071Z,0.40
2018-05-01T07:15:41.503Z,0.53
2018-05-01T07:18:13.336Z,0.60
2018-05-01T07:20:45.303Z,0.47
2018-05-01T07:23:17.542Z,0.30
2018-05-01T07:25:49.596Z,0.53
2018-05-01T07:28:21.953Z,0.47
2018-05-01T07:30:54.181Z,0.43
2018-05-01T07:33:26.040Z,0.40
2018-05-01T07:35:57.939Z,0.50
2018-05-01T07:38:31.957Z,1.10
2018-05-01T07:41:03.830Z,0.60
2018-05-01T07:43:36.236Z,0.40
2018-05-01T07:46:08.290Z,0.50
2018-05-01T07:48:41.941Z,0.30
2018-05-01T07:51:15.048Z,0.67
2018-05-01T07:53:48.843Z,1.00
2018-05-01T07:56:22.004Z,3.37
2018-05-01T08:01:34.396Z,0.30
2018-05-01T08:04:08.375Z,0.67
2018-05-01T08:06:40.226Z,0.40
2018-05-01T08:09:12.942Z,0.50
2018-05-01T08:11:46.428Z,0.40
2018-05-01T08:14:19.479Z,0.30
2018-05-01T08:16:51.268Z,0.50
2018-05-01T08:19:30.141Z,0.50
2018-05-01T08:22:03.339Z,0.57
2018-05-01T08:24:39.756Z,0.50
2018-05-01T08:27:18.788Z,0.23
2018-05-01T08:29:59.772Z,0.50
2018-05-01T08:35:26.450Z,0.20
2018-05-01T08:38:04.082Z,0.00
2018-05-01T08:40:42.961Z,0.30
2018-05-01T08:43:24.123Z,0.40
2018-05-01T08:48:44.284Z,0.23
2018-05-01T08:51:22.976Z,0.33
2018-05-01T08:53:56.127Z,0.30
2018-05-01T08:56:31.082Z,0.27
2018-05-01T09:01:48.248Z,0.47
2018-05-01T09:04:21.037Z,0.33
2018-05-01T09:07:01.010Z,0.40
2018-05-01T09:10:05.946Z,0.30
2018-05-01T09:12:37.737Z,0.63
2018-05-01T09:15:09.733Z,0.40
2018-05-01T09:17:41.674Z,0.33
2018-05-01T09:20:13.622Z,0.30
2018-05-01T09:22:45.817Z,0.40
2018-05-01T09:25:17.757Z,0.37
2018-05-01T09:27:49.699Z,0.50
2018-05-01T09:30:21.530Z,0.20
2018-05-01T09:32:53.702Z,0.20
2018-05-01T09:35:25.895Z,0.23
2018-05-01T09:37:57.647Z,0.10
2018-05-01T09:40:29.789Z,0.20
2018-05-01T09:43:01.623Z,0.27
2018-05-01T09:45:33.439Z,0.37
2018-05-01T09:48:05.484Z,0.40
2018-05-01T09:50:37.264Z,0.60
2018-05-01T09:53:10.698Z,0.20
2018-05-01T09:55:43.891Z,0.60
2018-05-01T09:58:17.139Z,0.50
2018-05-01T10:00:53.115Z,0.60
2018-05-01T10:03:26.569Z,0.60
2018-05-01T10:05:59.770Z,0.20
2018-05-01T10:11:07.245Z,0.30
2018-05-01T10:13:41.643Z,0.53
2018-05-01T10:16:15.114Z,0.43
2018-05-01T10:18:48.929Z,0.20
2018-05-01T10:21:24.388Z,0.10
2018-05-01T10:23:57.848Z,0.13
2018-05-01T10:26:31.245Z,0.30
2018-05-01T10:29:04.445Z,0.30
2018-05-01T10:31:38.083Z,0.30
2018-05-01T10:34:11.439Z,0.20
2018-05-01T10:36:44.928Z,0.30
2018-05-01T10:39:18.566Z,0.30
2018-05-01T10:41:52.186Z,0.33
2018-05-01T10:44:25.308Z,0.47
2018-05-01T10:46:59.004Z,0.80
2018-05-01T10:49:32.564Z,0.33
2018-05-01T10:52:07.730Z,0.40
2018-05-01T10:54:41.075Z,0.13
2018-05-01T10:57:17.371Z,0.30
2018-05-01T10:59:50.470Z,0.40
2018-05-01T11:02:23.999Z,0.40
2018-05-01T11:04:57.726Z,0.30
2018-05-01T11:07:30.918Z,0.30
2018-05-01T11:10:04.110Z,0.20
2018-05-01T11:12:37.382Z,0.30
2018-05-01T11:15:12.117Z,0.20
2018-05-01T11:17:45.259Z,0.20
2018-05-01T11:20:19.951Z,0.30
2018-05-01T11:22:53.155Z,0.30
2018-05-01T11:25:26.740Z,0.50
2018-05-01T11:30:26.291Z,0.10
2018-05-01T11:33:00.134Z,0.10
2018-05-01T11:35:33.757Z,0.30
2018-05-01T11:38:10.933Z,0.50
2018-05-01T11:40:44.428Z,0.30
2018-05-01T11:43:18.889Z,0.20
2018-05-01T11:45:57.193Z,0.30
2018-05-01T11:48:30.730Z,0.63
2018-05-01T11:51:04.210Z,0.17
2018-05-01T11:53:37.779Z,0.00
2018-05-01T11:56:11.132Z,0.33
2018-05-01T11:58:44.745Z,0.30
2018-05-01T12:01:19.022Z,0.40
2018-05-01T12:03:54.709Z,0.50
2018-05-01T12:06:28.586Z,0.30
2018-05-01T12:09:02.348Z,0.47
2018-05-01T12:11:35.535Z,0.30
2018-05-01T12:14:09.049Z,0.30
2018-05-01T12:16:42.503Z,0.30
2018-05-01T12:19:19.915Z,0.10
2018-05-01T12:21:53.239Z,0.20
2018-05-01T12:24:27.618Z,0.40
2018-05-01T12:27:01.029Z,0.10
2018-05-01T12:29:34.448Z,0.10
2018-05-01T12:32:07.995Z,0.30
2018-05-01T12:34:41.457Z,0.37
2018-05-01T12:37:19.344Z,0.20
2018-05-01T12:39:53.110Z,0.30
2018-05-01T12:42:28.887Z,0.40
2018-05-01T12:45:03.303Z,0.30
2018-05-01T12:47:43.542Z,0.30
2018-05-01T12:50:17.224Z,0.40
2018-05-01T12:52:51.408Z,0.33
2018-05-01T12:55:26.105Z,0.20
2018-05-01T12:57:59.423Z,0.10
2018-05-01T13:00:49.431Z,0.13
2018-05-01T13:03:24.962Z,0.20
2018-05-01T13:05:58.614Z,0.40
2018-05-01T13:08:32.932Z,0.40
2018-05-01T13:11:06.312Z,0.27
2018-05-01T13:13:39.530Z,0.40
2018-05-01T13:16:13.092Z,0.20
2018-05-01T13:18:46.920Z,0.23
2018-05-01T13:21:22.881Z,0.30
2018-05-01T13:24:03.165Z,0.20
2018-05-01T13:26:36.792Z,0.50
2018-05-01T13:29:10.054Z,0.40
2018-05-01T13:31:43.305Z,0.10
2018-05-01T13:34:19.828Z,0.30
2018-05-01T13:36:56.374Z,0.07
2018-05-01T13:39:31.155Z,0.50
2018-05-01T13:42:05.710Z,0.20
2018-05-01T13:44:40.365Z,0.10
2018-05-01T13:47:14.207Z,0.27
2018-05-01T13:49:48.581Z,0.30
2018-05-01T13:52:22.196Z,0.20
2018-05-01T13:54:55.779Z,0.10
2018-05-01T13:57:33.642Z,0.13
2018-05-01T14:00:07.678Z,0.40
2018-05-01T14:02:40.976Z,0.10
2018-05-01T14:05:14.209Z,0.20
2018-05-01T14:07:49.358Z,0.30
2018-05-01T14:10:23.334Z,0.30
2018-05-01T14:12:56.886Z,0.33
2018-05-01T14:15:30.880Z,0.30
2018-05-01T14:18:05.362Z,0.30
2018-05-01T14:20:44.817Z,0.30
2018-05-01T14:23:18.169Z,0.20
2018-05-01T14:25:51.808Z,0.20
2018-05-01T14:28:25.276Z,0.30
2018-05-01T14:30:59.004Z,0.23
2018-05-01T14:33:32.597Z,0.37
2018-05-01T14:36:05.880Z,0.40
2018-05-01T14:38:39.611Z,0.43
2018-05-01T14:41:12.959Z,0.30
2018-05-01T14:43:46.393Z,0.40
2018-05-01T14:46:19.901Z,0.20
2018-05-01T14:48:56.309Z,0.40
2018-05-01T14:52:18.207Z,0.53
2018-05-01T14:54:51.532Z,0.30
2018-05-01T14:57:25.467Z,0.30
2018-05-01T15:00:02.433Z,0.43
2018-05-01T15:02:36.541Z,0.50
2018-05-01T15:05:09.935Z,0.40
2018-05-01T15:07:55.585Z,0.30
2018-05-01T15:10:29.500Z,0.43
2018-05-01T15:13:03.190Z,0.50
2018-05-01T15:15:36.770Z,0.37
2018-05-01T15:18:10.763Z,0.27
2018-05-01T15:20:44.965Z,0.47
2018-05-01T15:23:18.229Z,0.50
2018-05-01T15:25:51.353Z,0.50
2018-05-01T15:28:25.069Z,0.60
2018-05-01T15:31:03.667Z,0.43
2018-05-01T15:33:42.261Z,0.40
2018-05-01T15:36:17.119Z,0.90
2018-05-01T15:38:50.547Z,0.60
2018-05-01T15:41:24.115Z,0.40
2018-05-01T15:43:58.279Z,1.17
2018-05-01T15:46:36.137Z,2.37
2018-05-01T15:49:13.135Z,1.90
2018-05-01T15:51:52.638Z,0.30
2018-05-01T15:54:26.661Z,1.40
2018-05-01T15:57:01.955Z,0.80
2018-05-01T15:59:35.684Z,0.70
2018-05-01T16:02:09.274Z,1.83
2018-05-01T16:04:43.628Z,0.40
2018-05-01T16:07:18.141Z,2.73
2018-05-01T16:09:53.477Z,1.40
2018-05-01T16:12:27.598Z,0.50
2018-05-01T16:15:00.805Z,1.87
2018-05-01T16:17:59.089Z,1.23
2018-05-01T16:20:41.277Z,1.43
2018-05-01T16:23:21.566Z,0.90
2018-05-01T16:25:55.774Z,0.60
2018-05-01T16:28:31.164Z,1.00
2018-05-01T16:31:07.723Z,1.37
2018-05-01T16:33:41.475Z,1.37
2018-05-01T16:36:15.079Z,1.40
2018-05-01T16:38:49.369Z,2.50
2018-05-01T16:41:22.845Z,1.67
2018-05-01T16:43:57.486Z,0.60
2018-05-01T16:46:31.290Z,0.60
2018-05-01T16:49:27.346Z,0.40
2018-05-01T16:55:35.060Z,0.70
2018-05-01T16:58:13.634Z,0.90
2018-05-01T17:03:46.319Z,0.60
2018-05-01T17:06:24.114Z,0.80
2018-05-01T17:08:58.189Z,0.60
2018-05-01T17:11:32.449Z,0.47
2018-05-01T17:14:06.444Z,0.63
2018-05-01T17:16:43.838Z,0.50
2018-05-01T17:19:20.891Z,0.80
2018-05-01T17:21:54.018Z,0.83
2018-05-01T17:24:31.723Z,0.80
2018-05-01T17:27:11.884Z,1.30
2018-05-01T17:29:46.532Z,0.93
2018-05-01T17:32:20.038Z,0.80
2018-05-01T17:34:53.295Z,0.97
2018-05-01T17:37:26.997Z,0.80
2018-05-01T17:40:00.874Z,0.60
2018-05-01T17:42:34.897Z,0.77
2018-05-01T17:45:10.992Z,0.60
2018-05-01T17:47:52.391Z,0.50
2018-05-01T17:50:31.217Z,0.60
2018-05-01T17:53:09.372Z,0.77
2018-05-01T17:55:43.258Z,1.73
2018-05-01T17:58:21.182Z,1.10
2018-05-01T18:00:59.328Z,1.10
2018-05-01T18:03:32.606Z,0.80
2018-05-01T18:06:06.842Z,0.90
2018-05-01T18:08:40.114Z,0.93
2018-05-01T18:11:13.631Z,0.73
2018-05-01T18:13:54.806Z,0.90
2018-05-01T18:16:29.921Z,1.10
2018-05-01T18:19:03.741Z,0.90
2018-05-01T18:21:36.906Z,0.70
2018-05-01T18:24:13.319Z,0.50
2018-05-01T18:26:46.902Z,0.57
2018-05-01T18:29:20.171Z,0.63
2018-05-01T18:31:53.306Z,0.90
2018-05-01T18:34:29.571Z,0.50
2018-05-01T18:37:04.123Z,0.83
2018-05-01T18:39:38.216Z,0.80
2018-05-01T18:42:17.100Z,0.50
2018-05-01T18:44:59.829Z,0.63
2018-05-01T18:49:56.791Z,0.60
2018-05-01T18:52:30.934Z,0.50
2018-05-01T18:55:05.143Z,0.70
2018-05-01T18:57:40.427Z,0.80
2018-05-01T19:00:16.293Z,0.90
2018-05-01T19:02:50.467Z,0.70
2018-05-01T19:05:23.974Z,0.80
2018-05-01T19:07:59.127Z,0.73
2018-05-01T19:10:33.992Z,0.80
2018-05-01T19:13:08.925Z,0.97
2018-05-01T19:15:43.011Z,1.10
2018-05-01T19:18:18.781Z,1.00
2018-05-01T19:20:52.924Z,0.90
2018-05-01T19:23:26.911Z,0.90
2018-05-01T19:26:00.469Z,0.90
2018-05-01T19:28:42.515Z,0.80
2018-05-01T19:31:17.589Z,0.90
2018-05-01T19:33:52.156Z,0.80
2018-05-01T19:36:26.543Z,0.90
2018-05-01T19:39:01.408Z,0.83
2018-05-01T19:41:37.041Z,1.20
2018-05-01T19:44:11.000Z,0.90
2018-05-01T19:46:44.626Z,1.00
2018-05-01T19:49:19.805Z,0.90
2018-05-01T19:51:54.362Z,1.10
2018-05-01T19:54:31.758Z,1.30
2018-05-01T19:57:05.559Z,1.30
2018-05-01T19:59:39.323Z,0.90
2018-05-01T20:02:12.677Z,0.97
2018-05-01T20:04:45.983Z,0.90
2018-05-01T20:07:19.677Z,1.00
2018-05-01T20:09:52.997Z,0.87
2018-05-01T20:12:27.788Z,1.37
2018-05-01T20:15:01.484Z,1.00
2018-05-01T20:17:35.100Z,0.80
2018-05-01T20:20:08.456Z,1.07
2018-05-01T20:22:41.885Z,0.80
2018-05-01T20:25:16.245Z,0.97
2018-05-01T20:27:50.247Z,0.93
2018-05-01T20:30:23.775Z,1.20
2018-05-01T20:32:57.955Z,1.10
2018-05-01T20:35:34.199Z,1.40
2018-05-01T20:38:08.282Z,1.30
2018-05-01T20:40:42.560Z,1.30
2018-05-01T20:43:16.249Z,0.97
2018-05-01T20:45:49.455Z,1.27
2018-05-01T20:48:22.694Z,1.33
2018-05-01T20:50:55.868Z,1.30
2018-05-01T20:53:29.815Z,1.70
2018-05-01T20:56:03.167Z,1.37
2018-05-01T20:58:36.578Z,1.47
2018-05-01T21:01:10.578Z,1.27
2018-05-01T21:03:43.763Z,1.30
2018-05-01T21:06:16.968Z,1.50
2018-05-01T21:08:51.236Z,1.30
2018-05-01T21:11:24.555Z,1.40
2018-05-01T21:13:57.605Z,1.40
2018-05-01T21:16:31.224Z,1.20
2018-05-01T21:19:04.252Z,1.20
2018-05-01T21:21:37.299Z,1.40
2018-05-01T21:24:10.456Z,1.17
2018-05-01T21:26:43.658Z,1.20
2018-05-01T21:29:16.625Z,1.10
2018-05-01T21:31:49.645Z,1.10
2018-05-01T21:34:22.699Z,1.10
2018-05-01T21:36:55.794Z,1.40
2018-05-01T21:39:28.832Z,1.10
2018-05-01T21:42:01.994Z,1.07
2018-05-01T21:44:35.073Z,1.10
2018-05-01T21:47:08.383Z,1.07
2018-05-01T21:49:41.428Z,1.20
2018-05-01T21:52:15.949Z,1.13
2018-05-01T21:54:48.940Z,1.00
2018-05-01T21:57:21.917Z,1.10
2018-05-01T21:59:55.589Z,1.07
2018-05-01T22:02:28.628Z,0.90
2018-05-01T22:05:01.669Z,1.23
2018-05-01T22:07:34.879Z,1.10
2018-05-01T22:10:09.310Z,1.03
2018-05-01T22:12:42.354Z,1.03
2018-05-01T22:15:15.880Z,1.20
2018-05-01T22:17:49.111Z,1.10
2018-05-01T22:20:22.178Z,1.00
2018-05-01T22:22:55.306Z,1.20
2018-05-01T22:25:28.258Z,1.10
2018-05-01T22:28:01.800Z,1.20
2018-05-01T22:30:34.831Z,1.10
2018-05-01T22:33:07.903Z,1.40
2018-05-01T22:35:41.101Z,1.00
2018-05-01T22:38:14.176Z,1.40
2018-05-01T22:40:47.577Z,1.07
2018-05-01T22:43:20.891Z,1.10
2018-05-01T22:45:55.916Z,1.10
2018-05-01T22:48:29.526Z,1.17
2018-05-01T22:51:02.840Z,1.50
2018-05-01T22:53:36.004Z,1.10
2018-05-01T22:56:10.284Z,1.30
2018-05-01T22:58:43.544Z,1.30
2018-05-01T23:01:17.241Z,1.10
2018-05-01T23:03:51.510Z,1.30
2018-05-01T23:06:24.854Z,1.10
2018-05-01T23:08:58.134Z,1.30
2018-05-01T23:11:32.248Z,1.40
2018-05-01T23:14:05.651Z,1.10
2018-05-01T23:16:38.717Z,1.13
2018-05-01T23:19:11.920Z,1.30
2018-05-01T23:21:45.344Z,1.30
2018-05-01T23:24:18.403Z,1.00
2018-05-01T23:26:51.461Z,1.30
2018-05-01T23:29:24.928Z,1.20
2018-05-01T23:31:58.197Z,1.17
2018-05-01T23:34:31.371Z,1.30
2018-05-01T23:37:06.111Z,1.30
2018-05-01T23:39:39.332Z,1.33
2018-05-01T23:42:12.567Z,1.20
2018-05-01T23:44:45.692Z,1.30
2018-05-01T23:47:19.242Z,1.10
2018-05-01T23:49:52.271Z,1.30
2018-05-01T23:52:25.535Z,1.20
2018-05-01T23:54:58.858Z,1.17
2018-05-01T23:57:32.097Z,1.10
